sensor_id;sensor_type;location;lat;lon;timestamp;temperature;humidity
52621;DHT22;38515;53.160;6.990;2022-11-25T00:02:22;6.50;99.90
52621;DHT22;38515;53.160;6.990;2022-11-25T00:04:48;6.40;99.90
52621;DHT22;38515;53.160;6.990;2022-11-25T00:07:14;6.50;99.90
52621;DHT22;38515;53.160;6.990;2022-11-25T00:09:39;6.50;99.90
52621;DHT22;38515;53.160;6.990;2022-11-25T00:12:05;6.50;99.90
52621;DHT22;38515;53.160;6.990;2022-11-25T00:14:31;6.60;99.90
52621;DHT22;38515;53.160;6.990;2022-11-25T00:16:57;6.50;99.90
52621;DHT22;38515;53.160;6.990;2022-11-25T00:19:23;6.60;99.90
52621;DHT22;38515;53.160;6.990;2022-11-25T00:21:49;6.60;99.90
52621;DHT22;38515;53.160;6.990;2022-11-25T00:24:15;6.60;99.90
52621;DHT22;38515;53.160;6.990;2022-11-25T00:26:41;6.60;99.90
52621;DHT22;38515;53.160;6.990;2022-11-25T00:29:09;6.60;99.90
52621;DHT22;38515;53.160;6.990;2022-11-25T00:31:38;6.70;99.90
52621;DHT22;38515;53.160;6.990;2022-11-25T00:34:04;6.70;99.90
52621;DHT22;38515;53.160;6.990;2022-11-25T00:36:35;6.70;99.90
52621;DHT22;38515;53.160;6.990;2022-11-25T00:39:11;6.70;99.90
52621;DHT22;38515;53.160;6.990;2022-11-25T00:41:37;6.70;99.90
52621;DHT22;38515;53.160;6.990;2022-11-25T00:44:22;6.80;99.90
52621;DHT22;38515;53.160;6.990;2022-11-25T00:49:27;6.80;99.90
52621;DHT22;38515;53.160;6.990;2022-11-25T00:51:53;6.80;99.90
52621;DHT22;38515;53.160;6.990;2022-11-25T00:54:19;6.80;99.90
52621;DHT22;38515;53.160;6.990;2022-11-25T00:56:45;6.80;99.90
52621;DHT22;38515;53.160;6.990;2022-11-25T00:59:11;6.90;99.90
52621;DHT22;38515;53.160;6.990;2022-11-25T01:01:37;6.90;99.90
52621;DHT22;38515;53.160;6.990;2022-11-25T01:04:05;6.90;99.90
52621;DHT22;38515;53.160;6.990;2022-11-25T01:06:31;6.90;99.90
52621;DHT22;38515;53.160;6.990;2022-11-25T01:08:57;6.90;99.90
52621;DHT22;38515;53.160;6.990;2022-11-25T01:11:23;6.90;99.90
52621;DHT22;38515;53.160;6.990;2022-11-25T01:13:50;7.00;99.90
52621;DHT22;38515;53.160;6.990;2022-11-25T01:16:19;7.00;99.90
52621;DHT22;38515;53.160;6.990;2022-11-25T01:18:45;7.00;99.90
52621;DHT22;38515;53.160;6.990;2022-11-25T01:21:14;7.00;99.90
52621;DHT22;38515;53.160;6.990;2022-11-25T01:23:41;7.00;99.90
52621;DHT22;38515;53.160;6.990;2022-11-25T01:26:10;7.00;99.90
52621;DHT22;38515;53.160;6.990;2022-11-25T01:28:36;7.00;99.90
52621;DHT22;38515;53.160;6.990;2022-11-25T01:31:05;7.00;99.90
52621;DHT22;38515;53.160;6.990;2022-11-25T01:33:32;7.00;99.90
52621;DHT22;38515;53.160;6.990;2022-11-25T01:36:07;7.00;99.90
52621;DHT22;38515;53.160;6.990;2022-11-25T01:38:34;6.90;99.90
52621;DHT22;38515;53.160;6.990;2022-11-25T01:41:01;7.00;99.90
52621;DHT22;38515;53.160;6.990;2022-11-25T01:43:28;6.90;99.90
52621;DHT22;38515;53.160;6.990;2022-11-25T01:46:24;6.90;99.90
52621;DHT22;38515;53.160;6.990;2022-11-25T01:48:57;6.90;99.90
52621;DHT22;38515;53.160;6.990;2022-11-25T01:54:17;6.80;99.90
52621;DHT22;38515;53.160;6.990;2022-11-25T01:56:57;6.80;99.90
52621;DHT22;38515;53.160;6.990;2022-11-25T01:59:24;6.80;99.90
52621;DHT22;38515;53.160;6.990;2022-11-25T02:01:51;6.80;99.90
52621;DHT22;38515;53.160;6.990;2022-11-25T02:04:18;6.80;99.90
52621;DHT22;38515;53.160;6.990;2022-11-25T02:06:50;6.90;99.90
52621;DHT22;38515;53.160;6.990;2022-11-25T02:09:18;6.80;99.90
52621;DHT22;38515;53.160;6.990;2022-11-25T02:11:45;6.80;99.90
52621;DHT22;38515;53.160;6.990;2022-11-25T02:14:12;6.80;99.90
52621;DHT22;38515;53.160;6.990;2022-11-25T02:16:40;6.90;99.90
52621;DHT22;38515;53.160;6.990;2022-11-25T02:19:10;6.90;99.90
52621;DHT22;38515;53.160;6.990;2022-11-25T02:21:44;7.00;99.90
52621;DHT22;38515;53.160;6.990;2022-11-25T02:24:29;6.90;99.90
52621;DHT22;38515;53.160;6.990;2022-11-25T02:26:56;7.00;99.90
52621;DHT22;38515;53.160;6.990;2022-11-25T02:29:22;7.00;99.90
52621;DHT22;38515;53.160;6.990;2022-11-25T02:31:49;7.00;99.90
52621;DHT22;38515;53.160;6.990;2022-11-25T02:34:16;7.00;99.90
52621;DHT22;38515;53.160;6.990;2022-11-25T02:36:42;7.00;99.90
52621;DHT22;38515;53.160;6.990;2022-11-25T02:39:08;7.00;99.90
52621;DHT22;38515;53.160;6.990;2022-11-25T02:41:48;7.00;99.90
52621;DHT22;38515;53.160;6.990;2022-11-25T02:44:15;7.00;99.90
52621;DHT22;38515;53.160;6.990;2022-11-25T02:46:41;6.90;99.90
52621;DHT22;38515;53.160;6.990;2022-11-25T02:49:07;6.90;99.90
52621;DHT22;38515;53.160;6.990;2022-11-25T02:51:33;6.80;99.90
52621;DHT22;38515;53.160;6.990;2022-11-25T02:54:00;6.80;99.90
52621;DHT22;38515;53.160;6.990;2022-11-25T02:56:29;6.90;99.90
52621;DHT22;38515;53.160;6.990;2022-11-25T02:58:56;6.80;99.90
52621;DHT22;38515;53.160;6.990;2022-11-25T03:01:22;6.80;99.90
52621;DHT22;38515;53.160;6.990;2022-11-25T03:03:48;6.70;99.90
52621;DHT22;38515;53.160;6.990;2022-11-25T03:06:14;6.70;99.90
52621;DHT22;38515;53.160;6.990;2022-11-25T03:08:40;6.70;99.90
52621;DHT22;38515;53.160;6.990;2022-11-25T03:11:05;6.70;99.90
52621;DHT22;38515;53.160;6.990;2022-11-25T03:13:31;6.70;99.90
52621;DHT22;38515;53.160;6.990;2022-11-25T03:15:57;6.60;99.90
52621;DHT22;38515;53.160;6.990;2022-11-25T03:18:23;6.60;99.90
52621;DHT22;38515;53.160;6.990;2022-11-25T03:20:53;6.60;99.90
52621;DHT22;38515;53.160;6.990;2022-11-25T03:23:19;6.60;99.90
52621;DHT22;38515;53.160;6.990;2022-11-25T03:25:45;6.60;99.90
52621;DHT22;38515;53.160;6.990;2022-11-25T03:28:11;6.60;99.90
52621;DHT22;38515;53.160;6.990;2022-11-25T03:30:37;6.60;99.90
52621;DHT22;38515;53.160;6.990;2022-11-25T03:33:03;6.60;99.90
52621;DHT22;38515;53.160;6.990;2022-11-25T03:35:29;6.60;99.90
52621;DHT22;38515;53.160;6.990;2022-11-25T03:37:55;6.70;99.90
52621;DHT22;38515;53.160;6.990;2022-11-25T03:40:21;6.60;99.90
52621;DHT22;38515;53.160;6.990;2022-11-25T03:42:47;6.60;99.90
52621;DHT22;38515;53.160;6.990;2022-11-25T03:45:15;6.70;99.90
52621;DHT22;38515;53.160;6.990;2022-11-25T03:47:44;6.70;99.90
52621;DHT22;38515;53.160;6.990;2022-11-25T03:50:12;6.70;99.90
52621;DHT22;38515;53.160;6.990;2022-11-25T03:52:38;6.60;99.90
52621;DHT22;38515;53.160;6.990;2022-11-25T03:55:05;6.60;99.90
52621;DHT22;38515;53.160;6.990;2022-11-25T03:57:32;6.70;99.90
52621;DHT22;38515;53.160;6.990;2022-11-25T03:59:58;6.70;99.90
52621;DHT22;38515;53.160;6.990;2022-11-25T04:02:24;6.70;99.90
52621;DHT22;38515;53.160;6.990;2022-11-25T04:04:50;6.60;99.90
52621;DHT22;38515;53.160;6.990;2022-11-25T04:07:16;6.60;99.90
52621;DHT22;38515;53.160;6.990;2022-11-25T04:09:42;6.70;99.90
52621;DHT22;38515;53.160;6.990;2022-11-25T04:12:09;6.70;99.90
52621;DHT22;38515;53.160;6.990;2022-11-25T04:14:53;6.60;99.90
52621;DHT22;38515;53.160;6.990;2022-11-25T04:17:19;6.60;99.90
52621;DHT22;38515;53.160;6.990;2022-11-25T04:19:45;6.60;99.90
52621;DHT22;38515;53.160;6.990;2022-11-25T04:22:11;6.70;99.90
52621;DHT22;38515;53.160;6.990;2022-11-25T04:24:40;6.70;99.90
52621;DHT22;38515;53.160;6.990;2022-11-25T04:27:05;6.70;99.90
52621;DHT22;38515;53.160;6.990;2022-11-25T04:29:31;6.70;99.90
52621;DHT22;38515;53.160;6.990;2022-11-25T04:31:57;6.80;99.90
52621;DHT22;38515;53.160;6.990;2022-11-25T04:34:23;6.70;99.90
52621;DHT22;38515;53.160;6.990;2022-11-25T04:36:49;6.80;99.90
52621;DHT22;38515;53.160;6.990;2022-11-25T04:39:15;6.70;99.90
52621;DHT22;38515;53.160;6.990;2022-11-25T04:41:41;6.70;99.90
52621;DHT22;38515;53.160;6.990;2022-11-25T04:44:07;6.70;99.90
52621;DHT22;38515;53.160;6.990;2022-11-25T04:46:36;6.80;99.90
52621;DHT22;38515;53.160;6.990;2022-11-25T04:49:04;6.80;99.90
52621;DHT22;38515;53.160;6.990;2022-11-25T04:51:30;7.20;99.90
52621;DHT22;38515;53.160;6.990;2022-11-25T04:53:56;6.80;99.90
52621;DHT22;38515;53.160;6.990;2022-11-25T04:56:22;6.80;99.90
52621;DHT22;38515;53.160;6.990;2022-11-25T04:58:48;6.80;99.90
52621;DHT22;38515;53.160;6.990;2022-11-25T05:01:32;6.80;99.90
52621;DHT22;38515;53.160;6.990;2022-11-25T05:03:58;6.80;99.90
52621;DHT22;38515;53.160;6.990;2022-11-25T05:06:24;6.80;99.90
52621;DHT22;38515;53.160;6.990;2022-11-25T05:08:50;6.90;99.90
52621;DHT22;38515;53.160;6.990;2022-11-25T05:11:16;6.80;99.90
52621;DHT22;38515;53.160;6.990;2022-11-25T05:13:42;6.90;99.90
52621;DHT22;38515;53.160;6.990;2022-11-25T05:16:08;6.90;99.90
52621;DHT22;38515;53.160;6.990;2022-11-25T05:18:34;6.90;99.90
52621;DHT22;38515;53.160;6.990;2022-11-25T05:21:04;6.80;99.90
52621;DHT22;38515;53.160;6.990;2022-11-25T05:23:32;6.80;99.90
52621;DHT22;38515;53.160;6.990;2022-11-25T05:26:04;6.80;99.90
52621;DHT22;38515;53.160;6.990;2022-11-25T05:28:30;6.80;99.90
52621;DHT22;38515;53.160;6.990;2022-11-25T05:30:56;6.90;99.90
52621;DHT22;38515;53.160;6.990;2022-11-25T05:33:23;6.80;99.90
52621;DHT22;38515;53.160;6.990;2022-11-25T05:36:00;6.80;99.90
52621;DHT22;38515;53.160;6.990;2022-11-25T05:38:26;6.90;99.90
52621;DHT22;38515;53.160;6.990;2022-11-25T05:40:53;6.90;99.90
52621;DHT22;38515;53.160;6.990;2022-11-25T05:43:24;6.90;99.90
52621;DHT22;38515;53.160;6.990;2022-11-25T05:45:50;6.80;99.90
52621;DHT22;38515;53.160;6.990;2022-11-25T05:48:16;6.80;99.90
52621;DHT22;38515;53.160;6.990;2022-11-25T05:50:41;6.80;99.90
52621;DHT22;38515;53.160;6.990;2022-11-25T05:53:07;6.80;99.90
52621;DHT22;38515;53.160;6.990;2022-11-25T05:55:33;6.80;99.90
52621;DHT22;38515;53.160;6.990;2022-11-25T05:57:59;6.80;99.90
52621;DHT22;38515;53.160;6.990;2022-11-25T06:00:26;6.90;99.90
52621;DHT22;38515;53.160;6.990;2022-11-25T06:02:52;6.90;99.90
52621;DHT22;38515;53.160;6.990;2022-11-25T06:05:18;6.80;99.90
52621;DHT22;38515;53.160;6.990;2022-11-25T06:07:44;6.90;99.90
52621;DHT22;38515;53.160;6.990;2022-11-25T06:10:10;6.90;99.90
52621;DHT22;38515;53.160;6.990;2022-11-25T06:12:36;6.80;99.90
52621;DHT22;38515;53.160;6.990;2022-11-25T06:15:02;6.90;99.90
52621;DHT22;38515;53.160;6.990;2022-11-25T06:17:28;6.90;99.90
52621;DHT22;38515;53.160;6.990;2022-11-25T06:19:54;7.00;99.90
52621;DHT22;38515;53.160;6.990;2022-11-25T06:22:20;7.00;99.90
52621;DHT22;38515;53.160;6.990;2022-11-25T06:24:46;7.00;99.90
52621;DHT22;38515;53.160;6.990;2022-11-25T06:27:12;7.00;99.90
52621;DHT22;38515;53.160;6.990;2022-11-25T06:29:38;7.50;99.90
52621;DHT22;38515;53.160;6.990;2022-11-25T06:32:04;7.00;99.90
52621;DHT22;38515;53.160;6.990;2022-11-25T06:34:30;7.00;99.90
52621;DHT22;38515;53.160;6.990;2022-11-25T06:36:56;7.00;99.90
52621;DHT22;38515;53.160;6.990;2022-11-25T06:39:21;7.00;99.90
52621;DHT22;38515;53.160;6.990;2022-11-25T06:41:47;7.10;99.90
52621;DHT22;38515;53.160;6.990;2022-11-25T06:44:13;7.10;99.90
52621;DHT22;38515;53.160;6.990;2022-11-25T06:46:40;7.10;99.90
52621;DHT22;38515;53.160;6.990;2022-11-25T06:49:05;7.10;99.90
52621;DHT22;38515;53.160;6.990;2022-11-25T06:51:31;7.20;99.90
52621;DHT22;38515;53.160;6.990;2022-11-25T06:53:57;7.20;99.90
52621;DHT22;38515;53.160;6.990;2022-11-25T06:56:25;7.20;99.90
52621;DHT22;38515;53.160;6.990;2022-11-25T06:58:51;7.20;99.90
52621;DHT22;38515;53.160;6.990;2022-11-25T07:01:20;7.20;99.90
52621;DHT22;38515;53.160;6.990;2022-11-25T07:03:48;7.20;99.90
52621;DHT22;38515;53.160;6.990;2022-11-25T07:06:16;7.20;99.90
52621;DHT22;38515;53.160;6.990;2022-11-25T07:08:42;7.20;99.90
52621;DHT22;38515;53.160;6.990;2022-11-25T07:13:43;7.20;99.90
52621;DHT22;38515;53.160;6.990;2022-11-25T07:16:10;7.20;99.90
52621;DHT22;38515;53.160;6.990;2022-11-25T07:18:37;7.30;99.90
52621;DHT22;38515;53.160;6.990;2022-11-25T07:21:06;7.30;99.90
52621;DHT22;38515;53.160;6.990;2022-11-25T07:23:33;7.40;99.90
52621;DHT22;38515;53.160;6.990;2022-11-25T07:26:04;7.40;99.90
52621;DHT22;38515;53.160;6.990;2022-11-25T07:28:31;7.40;99.90
52621;DHT22;38515;53.160;6.990;2022-11-25T07:31:04;7.40;99.90
52621;DHT22;38515;53.160;6.990;2022-11-25T07:33:30;7.40;99.90
52621;DHT22;38515;53.160;6.990;2022-11-25T07:36:01;7.40;99.90
52621;DHT22;38515;53.160;6.990;2022-11-25T07:38:26;7.40;99.90
52621;DHT22;38515;53.160;6.990;2022-11-25T07:40:52;7.40;99.90
52621;DHT22;38515;53.160;6.990;2022-11-25T07:43:18;7.40;99.90
52621;DHT22;38515;53.160;6.990;2022-11-25T07:45:44;7.40;99.90
52621;DHT22;38515;53.160;6.990;2022-11-25T07:48:10;7.50;99.90
52621;DHT22;38515;53.160;6.990;2022-11-25T07:50:36;7.50;99.90
52621;DHT22;38515;53.160;6.990;2022-11-25T07:53:03;6.80;99.90
52621;DHT22;38515;53.160;6.990;2022-11-25T07:55:28;7.50;99.90
52621;DHT22;38515;53.160;6.990;2022-11-25T07:57:54;7.50;99.90
52621;DHT22;38515;53.160;6.990;2022-11-25T08:00:20;7.50;99.90
52621;DHT22;38515;53.160;6.990;2022-11-25T08:02:47;7.50;99.90
52621;DHT22;38515;53.160;6.990;2022-11-25T08:05:13;7.50;99.90
52621;DHT22;38515;53.160;6.990;2022-11-25T08:07:39;7.50;99.90
52621;DHT22;38515;53.160;6.990;2022-11-25T08:10:05;7.60;99.90
52621;DHT22;38515;53.160;6.990;2022-11-25T08:12:31;7.60;99.90
52621;DHT22;38515;53.160;6.990;2022-11-25T08:14:58;7.60;99.90
52621;DHT22;38515;53.160;6.990;2022-11-25T08:17:23;7.60;99.90
52621;DHT22;38515;53.160;6.990;2022-11-25T08:19:49;7.60;99.90
52621;DHT22;38515;53.160;6.990;2022-11-25T08:22:15;7.70;99.90
52621;DHT22;38515;53.160;6.990;2022-11-25T08:24:41;7.80;99.90
52621;DHT22;38515;53.160;6.990;2022-11-25T08:27:07;7.80;99.90
52621;DHT22;38515;53.160;6.990;2022-11-25T08:29:33;7.80;99.90
52621;DHT22;38515;53.160;6.990;2022-11-25T08:31:59;7.80;99.90
52621;DHT22;38515;53.160;6.990;2022-11-25T08:34:25;7.80;99.90
52621;DHT22;38515;53.160;6.990;2022-11-25T08:36:51;7.90;99.90
52621;DHT22;38515;53.160;6.990;2022-11-25T08:39:19;7.90;99.90
52621;DHT22;38515;53.160;6.990;2022-11-25T08:41:45;8.00;99.90
52621;DHT22;38515;53.160;6.990;2022-11-25T08:44:11;8.10;99.90
52621;DHT22;38515;53.160;6.990;2022-11-25T08:46:38;8.20;99.90
52621;DHT22;38515;53.160;6.990;2022-11-25T08:49:06;8.30;99.90
52621;DHT22;38515;53.160;6.990;2022-11-25T08:51:35;8.40;99.90
52621;DHT22;38515;53.160;6.990;2022-11-25T08:54:01;8.50;99.90
52621;DHT22;38515;53.160;6.990;2022-11-25T08:56:29;8.60;99.90
52621;DHT22;38515;53.160;6.990;2022-11-25T08:58:57;8.60;99.90
52621;DHT22;38515;53.160;6.990;2022-11-25T09:01:24;8.70;99.90
52621;DHT22;38515;53.160;6.990;2022-11-25T09:03:52;8.90;99.90
52621;DHT22;38515;53.160;6.990;2022-11-25T09:06:20;9.00;99.90
52621;DHT22;38515;53.160;6.990;2022-11-25T09:08:46;9.20;99.90
52621;DHT22;38515;53.160;6.990;2022-11-25T09:11:13;9.30;99.90
52621;DHT22;38515;53.160;6.990;2022-11-25T09:13:39;9.40;99.90
52621;DHT22;38515;53.160;6.990;2022-11-25T09:16:06;9.50;99.90
52621;DHT22;38515;53.160;6.990;2022-11-25T09:18:32;9.60;99.90
52621;DHT22;38515;53.160;6.990;2022-11-25T09:21:07;9.70;99.90
52621;DHT22;38515;53.160;6.990;2022-11-25T09:23:34;9.80;99.90
52621;DHT22;38515;53.160;6.990;2022-11-25T09:26:04;9.70;99.90
52621;DHT22;38515;53.160;6.990;2022-11-25T09:28:32;9.90;99.90
52621;DHT22;38515;53.160;6.990;2022-11-25T09:31:05;9.90;99.90
52621;DHT22;38515;53.160;6.990;2022-11-25T09:33:31;10.10;99.90
52621;DHT22;38515;53.160;6.990;2022-11-25T09:35:59;10.10;99.90
52621;DHT22;38515;53.160;6.990;2022-11-25T09:38:25;10.10;99.90
52621;DHT22;38515;53.160;6.990;2022-11-25T09:41:01;10.00;99.90
52621;DHT22;38515;53.160;6.990;2022-11-25T09:55:20;11.00;99.90
52621;DHT22;38515;53.160;6.990;2022-11-25T09:57:59;11.30;99.90
52621;DHT22;38515;53.160;6.990;2022-11-25T10:00:40;11.40;99.90
52621;DHT22;38515;53.160;6.990;2022-11-25T10:08:31;11.10;99.90
52621;DHT22;38515;53.160;6.990;2022-11-25T10:11:14;11.00;99.90
52621;DHT22;38515;53.160;6.990;2022-11-25T10:13:49;10.90;99.90
52621;DHT22;38515;53.160;6.990;2022-11-25T10:21:45;10.70;99.90
52621;DHT22;38515;53.160;6.990;2022-11-25T10:24:16;10.60;99.90
52621;DHT22;38515;53.160;6.990;2022-11-25T10:26:45;10.60;99.90
52621;DHT22;38515;53.160;6.990;2022-11-25T10:29:27;10.50;99.90
52621;DHT22;38515;53.160;6.990;2022-11-25T10:32:00;10.50;99.90
52621;DHT22;38515;53.160;6.990;2022-11-25T10:34:37;10.40;99.90
52621;DHT22;38515;53.160;6.990;2022-11-25T10:37:11;10.40;99.90
52621;DHT22;38515;53.160;6.990;2022-11-25T10:39:39;10.40;99.90
52621;DHT22;38515;53.160;6.990;2022-11-25T10:42:14;10.40;99.90
52621;DHT22;38515;53.160;6.990;2022-11-25T10:44:42;10.40;99.90
52621;DHT22;38515;53.160;6.990;2022-11-25T10:52:21;10.40;99.90
52621;DHT22;38515;53.160;6.990;2022-11-25T10:57:33;10.50;99.90
52621;DHT22;38515;53.160;6.990;2022-11-25T10:59:59;10.50;99.90
52621;DHT22;38515;53.160;6.990;2022-11-25T11:07:32;10.50;99.90
52621;DHT22;38515;53.160;6.990;2022-11-25T11:13:00;10.50;99.90
52621;DHT22;38515;53.160;6.990;2022-11-25T11:15:43;10.60;99.90
52621;DHT22;38515;53.160;6.990;2022-11-25T11:20:51;10.60;99.90
52621;DHT22;38515;53.160;6.990;2022-11-25T11:23:18;10.50;99.90
52621;DHT22;38515;53.160;6.990;2022-11-25T11:26:23;10.60;99.90
52621;DHT22;38515;53.160;6.990;2022-11-25T11:29:15;10.60;99.90
52621;DHT22;38515;53.160;6.990;2022-11-25T11:31:52;10.70;99.90
52621;DHT22;38515;53.160;6.990;2022-11-25T11:34:32;10.80;99.90
52621;DHT22;38515;53.160;6.990;2022-11-25T11:37:34;10.80;99.90
52621;DHT22;38515;53.160;6.990;2022-11-25T11:40:38;10.80;99.90
52621;DHT22;38515;53.160;6.990;2022-11-25T11:49:01;11.20;99.90
52621;DHT22;38515;53.160;6.990;2022-11-25T11:54:35;11.40;99.90
52621;DHT22;38515;53.160;6.990;2022-11-25T11:57:06;11.40;99.90
52621;DHT22;38515;53.160;6.990;2022-11-25T11:59:42;11.30;99.90
52621;DHT22;38515;53.160;6.990;2022-11-25T12:07:35;11.00;99.90
52621;DHT22;38515;53.160;6.990;2022-11-25T12:10:18;11.00;99.90
52621;DHT22;38515;53.160;6.990;2022-11-25T12:15:54;11.00;99.90
52621;DHT22;38515;53.160;6.990;2022-11-25T12:21:44;11.00;99.90
52621;DHT22;38515;53.160;6.990;2022-11-25T12:27:02;10.80;99.90
52621;DHT22;38515;53.160;6.990;2022-11-25T12:34:56;10.60;99.90
52621;DHT22;38515;53.160;6.990;2022-11-25T12:37:35;10.60;99.90
52621;DHT22;38515;53.160;6.990;2022-11-25T12:42:44;10.90;99.90
52621;DHT22;38515;53.160;6.990;2022-11-25T12:45:21;10.70;99.90
52621;DHT22;38515;53.160;6.990;2022-11-25T12:47:47;10.70;99.90
52621;DHT22;38515;53.160;6.990;2022-11-25T12:50:30;10.70;99.90
52621;DHT22;38515;53.160;6.990;2022-11-25T12:55:59;10.90;99.90
52621;DHT22;38515;53.160;6.990;2022-11-25T12:58:43;10.80;99.90
52621;DHT22;38515;53.160;6.990;2022-11-25T13:01:47;10.90;99.90
52621;DHT22;38515;53.160;6.990;2022-11-25T13:18:01;10.80;99.90
52621;DHT22;38515;53.160;6.990;2022-11-25T13:25:31;10.70;99.90
52621;DHT22;38515;53.160;6.990;2022-11-25T13:28:05;10.70;99.90
52621;DHT22;38515;53.160;6.990;2022-11-25T13:30:51;10.70;99.90
52621;DHT22;38515;53.160;6.990;2022-11-25T13:35:53;10.60;99.90
52621;DHT22;38515;53.160;6.990;2022-11-25T13:38:37;10.60;99.90
52621;DHT22;38515;53.160;6.990;2022-11-25T13:41:24;10.60;99.90
52621;DHT22;38515;53.160;6.990;2022-11-25T13:44:25;10.50;99.90
52621;DHT22;38515;53.160;6.990;2022-11-25T13:46:57;10.40;99.90
52621;DHT22;38515;53.160;6.990;2022-11-25T13:49:27;10.40;99.90
52621;DHT22;38515;53.160;6.990;2022-11-25T13:51:57;10.40;99.90
52621;DHT22;38515;53.160;6.990;2022-11-25T13:54:30;10.40;99.90
52621;DHT22;38515;53.160;6.990;2022-11-25T13:57:18;10.40;99.90
52621;DHT22;38515;53.160;6.990;2022-11-25T13:59:48;10.50;99.90
52621;DHT22;38515;53.160;6.990;2022-11-25T14:08:06;10.40;99.90
52621;DHT22;38515;53.160;6.990;2022-11-25T14:19:44;10.10;99.90
52621;DHT22;38515;53.160;6.990;2022-11-25T14:27:51;10.00;99.90
52621;DHT22;38515;53.160;6.990;2022-11-25T14:30:20;10.00;99.90
52621;DHT22;38515;53.160;6.990;2022-11-25T14:32:55;9.90;99.90
52621;DHT22;38515;53.160;6.990;2022-11-25T14:35:35;9.90;99.90
52621;DHT22;38515;53.160;6.990;2022-11-25T14:38:35;9.80;99.90
52621;DHT22;38515;53.160;6.990;2022-11-25T14:41:28;9.70;99.90
52621;DHT22;38515;53.160;6.990;2022-11-25T14:44:18;9.50;99.90
52621;DHT22;38515;53.160;6.990;2022-11-25T14:46:55;9.40;99.90
52621;DHT22;38515;53.160;6.990;2022-11-25T14:49:21;9.30;99.90
52621;DHT22;38515;53.160;6.990;2022-11-25T14:51:51;9.20;99.90
52621;DHT22;38515;53.160;6.990;2022-11-25T14:54:19;9.10;99.90
52621;DHT22;38515;53.160;6.990;2022-11-25T14:56:47;9.10;99.90
52621;DHT22;38515;53.160;6.990;2022-11-25T14:59:13;9.00;99.90
52621;DHT22;38515;53.160;6.990;2022-11-25T15:01:52;8.90;99.90
52621;DHT22;38515;53.160;6.990;2022-11-25T15:04:23;8.90;99.90
52621;DHT22;38515;53.160;6.990;2022-11-25T15:06:52;8.80;99.90
52621;DHT22;38515;53.160;6.990;2022-11-25T15:11:56;8.80;99.90
52621;DHT22;38515;53.160;6.990;2022-11-25T15:14:25;8.80;99.90
52621;DHT22;38515;53.160;6.990;2022-11-25T15:16:52;8.80;99.90
52621;DHT22;38515;53.160;6.990;2022-11-25T15:19:21;8.80;99.90
52621;DHT22;38515;53.160;6.990;2022-11-25T15:22:00;8.80;99.90
52621;DHT22;38515;53.160;6.990;2022-11-25T15:24:43;8.90;99.90
52621;DHT22;38515;53.160;6.990;2022-11-25T15:27:14;8.90;99.90
52621;DHT22;38515;53.160;6.990;2022-11-25T15:29:42;8.80;99.90
52621;DHT22;38515;53.160;6.990;2022-11-25T15:32:19;8.80;99.90
52621;DHT22;38515;53.160;6.990;2022-11-25T15:34:47;8.80;99.90
52621;DHT22;38515;53.160;6.990;2022-11-25T15:37:13;8.80;99.90
52621;DHT22;38515;53.160;6.990;2022-11-25T15:39:40;8.70;99.90
52621;DHT22;38515;53.160;6.990;2022-11-25T15:42:23;8.70;99.90
52621;DHT22;38515;53.160;6.990;2022-11-25T15:45:04;8.70;99.90
52621;DHT22;38515;53.160;6.990;2022-11-25T15:47:33;8.70;99.90
52621;DHT22;38515;53.160;6.990;2022-11-25T15:52:38;8.50;99.90
52621;DHT22;38515;53.160;6.990;2022-11-25T15:55:32;8.50;99.90
52621;DHT22;38515;53.160;6.990;2022-11-25T15:58:06;8.40;99.90
52621;DHT22;38515;53.160;6.990;2022-11-25T16:00:35;8.20;99.90
52621;DHT22;38515;53.160;6.990;2022-11-25T16:03:01;8.10;99.90
52621;DHT22;38515;53.160;6.990;2022-11-25T16:05:30;8.00;99.90
52621;DHT22;38515;53.160;6.990;2022-11-25T16:07:59;7.90;99.90
52621;DHT22;38515;53.160;6.990;2022-11-25T16:18:13;7.40;99.90
52621;DHT22;38515;53.160;6.990;2022-11-25T16:20:55;7.40;99.90
52621;DHT22;38515;53.160;6.990;2022-11-25T16:23:22;7.40;99.90
52621;DHT22;38515;53.160;6.990;2022-11-25T16:25:54;7.30;99.90
52621;DHT22;38515;53.160;6.990;2022-11-25T16:28:21;7.20;99.90
52621;DHT22;38515;53.160;6.990;2022-11-25T16:30:48;7.10;99.90
52621;DHT22;38515;53.160;6.990;2022-11-25T16:33:14;7.10;99.90
52621;DHT22;38515;53.160;6.990;2022-11-25T16:35:40;7.00;99.90
52621;DHT22;38515;53.160;6.990;2022-11-25T16:38:06;7.00;99.90
52621;DHT22;38515;53.160;6.990;2022-11-25T16:40:35;6.90;99.90
52621;DHT22;38515;53.160;6.990;2022-11-25T16:43:02;6.80;99.90
52621;DHT22;38515;53.160;6.990;2022-11-25T16:45:28;6.70;99.90
52621;DHT22;38515;53.160;6.990;2022-11-25T16:47:54;6.60;99.90
52621;DHT22;38515;53.160;6.990;2022-11-25T16:50:20;6.60;99.90
52621;DHT22;38515;53.160;6.990;2022-11-25T16:52:47;6.50;99.90
52621;DHT22;38515;53.160;6.990;2022-11-25T16:55:14;6.50;99.90
52621;DHT22;38515;53.160;6.990;2022-11-25T16:57:41;6.40;99.90
52621;DHT22;38515;53.160;6.990;2022-11-25T17:00:12;6.30;99.90
52621;DHT22;38515;53.160;6.990;2022-11-25T17:02:39;6.30;99.90
52621;DHT22;38515;53.160;6.990;2022-11-25T17:05:20;6.30;99.90
52621;DHT22;38515;53.160;6.990;2022-11-25T17:07:47;6.30;99.90
52621;DHT22;38515;53.160;6.990;2022-11-25T17:10:18;6.20;99.90
52621;DHT22;38515;53.160;6.990;2022-11-25T17:12:45;6.20;99.90
52621;DHT22;38515;53.160;6.990;2022-11-25T17:15:15;6.10;99.90
52621;DHT22;38515;53.160;6.990;2022-11-25T17:17:43;6.00;99.90
52621;DHT22;38515;53.160;6.990;2022-11-25T17:20:16;6.00;99.90
52621;DHT22;38515;53.160;6.990;2022-11-25T17:22:43;6.00;99.90
52621;DHT22;38515;53.160;6.990;2022-11-25T17:25:12;6.00;99.90
52621;DHT22;38515;53.160;6.990;2022-11-25T17:27:39;6.00;99.90
52621;DHT22;38515;53.160;6.990;2022-11-25T17:30:23;5.70;99.90
52621;DHT22;38515;53.160;6.990;2022-11-25T17:33:00;6.00;99.90
52621;DHT22;38515;53.160;6.990;2022-11-25T17:35:27;5.90;99.90
52621;DHT22;38515;53.160;6.990;2022-11-25T17:37:52;5.80;99.90
52621;DHT22;38515;53.160;6.990;2022-11-25T17:40:18;5.80;99.90
52621;DHT22;38515;53.160;6.990;2022-11-25T17:42:45;5.70;99.90
52621;DHT22;38515;53.160;6.990;2022-11-25T17:45:16;5.70;99.90
52621;DHT22;38515;53.160;6.990;2022-11-25T17:47:43;5.70;99.90
52621;DHT22;38515;53.160;6.990;2022-11-25T17:50:24;5.70;99.90
52621;DHT22;38515;53.160;6.990;2022-11-25T17:52:50;5.70;99.90
52621;DHT22;38515;53.160;6.990;2022-11-25T17:55:18;5.50;99.90
52621;DHT22;38515;53.160;6.990;2022-11-25T17:57:51;5.40;99.90
52621;DHT22;38515;53.160;6.990;2022-11-25T18:00:20;4.00;99.90
52621;DHT22;38515;53.160;6.990;2022-11-25T18:02:47;5.30;99.90
52621;DHT22;38515;53.160;6.990;2022-11-25T18:05:32;5.30;99.90
52621;DHT22;38515;53.160;6.990;2022-11-25T18:07:59;5.30;99.90
52621;DHT22;38515;53.160;6.990;2022-11-25T18:10:26;5.40;99.90
52621;DHT22;38515;53.160;6.990;2022-11-25T18:12:54;5.40;99.90
52621;DHT22;38515;53.160;6.990;2022-11-25T18:15:22;5.40;99.90
52621;DHT22;38515;53.160;6.990;2022-11-25T18:17:50;5.40;99.90